Terminal Aerodrome Forecast
Issued by NWS

Home | Current Version | Previous Version | Graphics & Text | Print | Product List | Glossary On
Versions: 1 2 3 4 5 6 7 8 9 10 11 12 13 14 15 16 17 18 19 20 21 22 23 24 25 26
000
FTUS43 KTOP 261740
TAFFOE
TAF
KFOE 261740Z 2618/2718 14010G19KT P6SM BKN050
     FM262100 16012G19KT P6SM TSRA BKN025CB
     FM270100 15013KT P6SM VCTS SCT025 BKN040CB
     FM270400 15013KT 5SM TSRA OVC035CB
     FM270700 14009KT P6SM BKN020=

USA.gov is the U.S. government's official web portal to all federal, state and local government web resources and services.